sensor_id;sensor_type;location;lat;lon;timestamp;temperature;humidity
32706;DHT22;19094;50.972;3.538;2023-04-07T00:00:06;14.20;64.60
32706;DHT22;19094;50.972;3.538;2023-04-07T00:02:32;14.10;64.70
32706;DHT22;19094;50.972;3.538;2023-04-07T00:04:58;14.10;64.60
32706;DHT22;19094;50.972;3.538;2023-04-07T00:07:23;14.20;64.50
32706;DHT22;19094;50.972;3.538;2023-04-07T00:09:49;14.10;64.70
32706;DHT22;19094;50.972;3.538;2023-04-07T00:12:15;14.10;64.80
32706;DHT22;19094;50.972;3.538;2023-04-07T00:14:41;14.10;65.00
32706;DHT22;19094;50.972;3.538;2023-04-07T00:17:07;14.10;65.10
32706;DHT22;19094;50.972;3.538;2023-04-07T00:19:32;14.10;65.10
32706;DHT22;19094;50.972;3.538;2023-04-07T00:21:58;14.00;65.10
32706;DHT22;19094;50.972;3.538;2023-04-07T00:24:23;14.10;65.20
32706;DHT22;19094;50.972;3.538;2023-04-07T00:26:49;14.00;65.10
32706;DHT22;19094;50.972;3.538;2023-04-07T00:29:15;14.00;65.20
32706;DHT22;19094;50.972;3.538;2023-04-07T00:31:40;14.00;65.30
32706;DHT22;19094;50.972;3.538;2023-04-07T00:34:06;14.00;65.10
32706;DHT22;19094;50.972;3.538;2023-04-07T00:36:32;14.00;65.30
32706;DHT22;19094;50.972;3.538;2023-04-07T00:38:58;14.00;65.20
32706;DHT22;19094;50.972;3.538;2023-04-07T00:41:23;14.00;65.10
32706;DHT22;19094;50.972;3.538;2023-04-07T00:43:50;14.00;65.10
32706;DHT22;19094;50.972;3.538;2023-04-07T00:46:16;14.10;64.90
32706;DHT22;19094;50.972;3.538;2023-04-07T00:48:43;14.10;64.70
32706;DHT22;19094;50.972;3.538;2023-04-07T00:51:09;14.10;64.70
32706;DHT22;19094;50.972;3.538;2023-04-07T00:53:35;14.10;64.70
32706;DHT22;19094;50.972;3.538;2023-04-07T00:56:00;14.10;64.70
32706;DHT22;19094;50.972;3.538;2023-04-07T00:58:26;14.10;64.70
32706;DHT22;19094;50.972;3.538;2023-04-07T01:01:08;14.10;64.60
32706;DHT22;19094;50.972;3.538;2023-04-07T01:03:48;14.10;64.70
32706;DHT22;19094;50.972;3.538;2023-04-07T01:06:17;14.00;64.60
32706;DHT22;19094;50.972;3.538;2023-04-07T01:08:59;14.10;64.60
32706;DHT22;19094;50.972;3.538;2023-04-07T01:14:05;14.10;64.70
32706;DHT22;19094;50.972;3.538;2023-04-07T01:16:37;14.10;64.70
32706;DHT22;19094;50.972;3.538;2023-04-07T01:20:10;14.10;64.50
32706;DHT22;19094;50.972;3.538;2023-04-07T01:22:07;14.10;64.60
32706;DHT22;19094;50.972;3.538;2023-04-07T01:29:57;14.00;64.90
32706;DHT22;19094;50.972;3.538;2023-04-07T01:32:26;14.00;65.00
32706;DHT22;19094;50.972;3.538;2023-04-07T01:34:53;14.00;65.00
32706;DHT22;19094;50.972;3.538;2023-04-07T01:37:20;14.00;65.00
32706;DHT22;19094;50.972;3.538;2023-04-07T01:39:47;14.00;65.00
32706;DHT22;19094;50.972;3.538;2023-04-07T01:42:13;14.00;65.00
32706;DHT22;19094;50.972;3.538;2023-04-07T01:44:40;13.90;65.10
32706;DHT22;19094;50.972;3.538;2023-04-07T01:47:06;13.90;64.90
32706;DHT22;19094;50.972;3.538;2023-04-07T01:49:32;14.00;65.00
32706;DHT22;19094;50.972;3.538;2023-04-07T01:52:00;14.00;64.90
32706;DHT22;19094;50.972;3.538;2023-04-07T01:54:27;14.00;64.80
32706;DHT22;19094;50.972;3.538;2023-04-07T01:56:53;14.00;64.80
32706;DHT22;19094;50.972;3.538;2023-04-07T01:59:18;14.00;64.70
32706;DHT22;19094;50.972;3.538;2023-04-07T02:01:44;14.00;64.70
32706;DHT22;19094;50.972;3.538;2023-04-07T02:04:39;14.10;64.70
32706;DHT22;19094;50.972;3.538;2023-04-07T02:07:21;14.00;64.80
32706;DHT22;19094;50.972;3.538;2023-04-07T02:09:50;14.00;64.60
32706;DHT22;19094;50.972;3.538;2023-04-07T02:12:16;14.00;64.70
32706;DHT22;19094;50.972;3.538;2023-04-07T02:14:42;14.00;64.70
32706;DHT22;19094;50.972;3.538;2023-04-07T02:17:09;14.00;64.70
32706;DHT22;19094;50.972;3.538;2023-04-07T02:19:35;14.00;64.80
32706;DHT22;19094;50.972;3.538;2023-04-07T02:22:04;14.00;65.00
32706;DHT22;19094;50.972;3.538;2023-04-07T02:24:30;14.00;65.00
32706;DHT22;19094;50.972;3.538;2023-04-07T02:26:56;14.00;65.10
32706;DHT22;19094;50.972;3.538;2023-04-07T02:29:22;14.00;64.90
32706;DHT22;19094;50.972;3.538;2023-04-07T02:31:47;14.00;64.90
32706;DHT22;19094;50.972;3.538;2023-04-07T02:34:13;14.00;65.00
32706;DHT22;19094;50.972;3.538;2023-04-07T02:36:38;14.00;65.00
32706;DHT22;19094;50.972;3.538;2023-04-07T02:39:04;13.90;65.20
32706;DHT22;19094;50.972;3.538;2023-04-07T02:41:30;13.90;65.30
32706;DHT22;19094;50.972;3.538;2023-04-07T02:43:56;13.90;65.40
32706;DHT22;19094;50.972;3.538;2023-04-07T02:46:21;13.90;65.50
32706;DHT22;19094;50.972;3.538;2023-04-07T02:48:47;13.90;65.40
32706;DHT22;19094;50.972;3.538;2023-04-07T02:51:12;13.90;65.40
32706;DHT22;19094;50.972;3.538;2023-04-07T02:53:38;13.90;65.50
32706;DHT22;19094;50.972;3.538;2023-04-07T02:56:04;13.90;65.60
32706;DHT22;19094;50.972;3.538;2023-04-07T02:58:30;13.90;65.40
32706;DHT22;19094;50.972;3.538;2023-04-07T03:00:55;13.90;65.40
32706;DHT22;19094;50.972;3.538;2023-04-07T03:03:21;13.80;65.50
32706;DHT22;19094;50.972;3.538;2023-04-07T03:05:47;13.90;65.50
32706;DHT22;19094;50.972;3.538;2023-04-07T03:08:12;13.90;65.40
32706;DHT22;19094;50.972;3.538;2023-04-07T03:10:38;13.90;65.30
32706;DHT22;19094;50.972;3.538;2023-04-07T03:13:03;14.00;65.10
32706;DHT22;19094;50.972;3.538;2023-04-07T03:15:29;14.00;65.00
32706;DHT22;19094;50.972;3.538;2023-04-07T03:17:55;14.00;65.00
32706;DHT22;19094;50.972;3.538;2023-04-07T03:20:20;13.90;64.90
32706;DHT22;19094;50.972;3.538;2023-04-07T03:22:46;14.00;65.00
32706;DHT22;19094;50.972;3.538;2023-04-07T03:25:12;13.90;64.90
32706;DHT22;19094;50.972;3.538;2023-04-07T03:27:38;13.90;64.90
32706;DHT22;19094;50.972;3.538;2023-04-07T03:30:04;13.90;64.80
32706;DHT22;19094;50.972;3.538;2023-04-07T03:32:30;13.90;64.80
32706;DHT22;19094;50.972;3.538;2023-04-07T03:34:55;13.90;64.90
32706;DHT22;19094;50.972;3.538;2023-04-07T03:37:21;13.90;64.80
32706;DHT22;19094;50.972;3.538;2023-04-07T03:39:47;14.00;64.80
32706;DHT22;19094;50.972;3.538;2023-04-07T03:42:12;13.90;64.90
32706;DHT22;19094;50.972;3.538;2023-04-07T03:44:38;13.90;65.00
32706;DHT22;19094;50.972;3.538;2023-04-07T03:47:04;13.80;65.00
32706;DHT22;19094;50.972;3.538;2023-04-07T03:49:29;13.80;65.20
32706;DHT22;19094;50.972;3.538;2023-04-07T03:51:56;13.80;65.20
32706;DHT22;19094;50.972;3.538;2023-04-07T03:54:22;13.80;65.20
32706;DHT22;19094;50.972;3.538;2023-04-07T03:56:47;13.80;65.30
32706;DHT22;19094;50.972;3.538;2023-04-07T03:59:13;13.80;65.20
32706;DHT22;19094;50.972;3.538;2023-04-07T04:01:39;13.80;65.20
32706;DHT22;19094;50.972;3.538;2023-04-07T04:04:05;13.80;65.20
32706;DHT22;19094;50.972;3.538;2023-04-07T04:06:30;13.70;65.20
32706;DHT22;19094;50.972;3.538;2023-04-07T04:08:56;13.80;65.30
32706;DHT22;19094;50.972;3.538;2023-04-07T04:11:22;13.80;65.30
32706;DHT22;19094;50.972;3.538;2023-04-07T04:13:48;13.70;65.20
32706;DHT22;19094;50.972;3.538;2023-04-07T04:16:14;13.80;65.30
32706;DHT22;19094;50.972;3.538;2023-04-07T04:18:39;13.80;65.00
32706;DHT22;19094;50.972;3.538;2023-04-07T04:21:07;13.80;65.00
32706;DHT22;19094;50.972;3.538;2023-04-07T04:23:32;13.80;64.90
32706;DHT22;19094;50.972;3.538;2023-04-07T04:25:58;13.90;64.90
32706;DHT22;19094;50.972;3.538;2023-04-07T04:28:24;13.90;64.90
32706;DHT22;19094;50.972;3.538;2023-04-07T04:30:50;13.80;65.60
32706;DHT22;19094;50.972;3.538;2023-04-07T04:33:16;13.80;64.70
32706;DHT22;19094;50.972;3.538;2023-04-07T04:35:42;13.90;64.80
32706;DHT22;19094;50.972;3.538;2023-04-07T04:38:07;13.90;64.80
32706;DHT22;19094;50.972;3.538;2023-04-07T04:40:33;13.80;64.80
32706;DHT22;19094;50.972;3.538;2023-04-07T04:42:58;13.80;64.90
32706;DHT22;19094;50.972;3.538;2023-04-07T04:45:24;13.80;65.00
32706;DHT22;19094;50.972;3.538;2023-04-07T04:47:50;13.80;64.80
32706;DHT22;19094;50.972;3.538;2023-04-07T04:50:15;13.80;64.80
32706;DHT22;19094;50.972;3.538;2023-04-07T04:52:41;13.80;64.80
32706;DHT22;19094;50.972;3.538;2023-04-07T04:55:08;13.80;64.80
32706;DHT22;19094;50.972;3.538;2023-04-07T04:57:34;13.80;64.80
32706;DHT22;19094;50.972;3.538;2023-04-07T05:00:01;13.80;64.80
32706;DHT22;19094;50.972;3.538;2023-04-07T05:02:27;13.80;64.90
32706;DHT22;19094;50.972;3.538;2023-04-07T05:04:52;13.80;64.80
32706;DHT22;19094;50.972;3.538;2023-04-07T05:07:18;13.80;64.80
32706;DHT22;19094;50.972;3.538;2023-04-07T05:09:44;13.70;64.80
32706;DHT22;19094;50.972;3.538;2023-04-07T05:12:09;13.70;64.90
32706;DHT22;19094;50.972;3.538;2023-04-07T05:14:35;13.80;64.90
32706;DHT22;19094;50.972;3.538;2023-04-07T05:17:01;13.80;64.90
32706;DHT22;19094;50.972;3.538;2023-04-07T05:19:26;13.70;64.80
32706;DHT22;19094;50.972;3.538;2023-04-07T05:21:54;13.70;64.90
32706;DHT22;19094;50.972;3.538;2023-04-07T05:24:19;13.70;65.10
32706;DHT22;19094;50.972;3.538;2023-04-07T05:26:45;13.60;65.30
32706;DHT22;19094;50.972;3.538;2023-04-07T05:29:11;13.60;65.40
32706;DHT22;19094;50.972;3.538;2023-04-07T05:31:36;13.60;65.50
32706;DHT22;19094;50.972;3.538;2023-04-07T05:34:02;13.60;65.50
32706;DHT22;19094;50.972;3.538;2023-04-07T05:36:28;13.50;65.50
32706;DHT22;19094;50.972;3.538;2023-04-07T05:38:53;13.60;65.60
32706;DHT22;19094;50.972;3.538;2023-04-07T05:41:19;13.50;65.60
32706;DHT22;19094;50.972;3.538;2023-04-07T05:43:45;13.50;65.60
32706;DHT22;19094;50.972;3.538;2023-04-07T05:46:11;13.50;65.60
32706;DHT22;19094;50.972;3.538;2023-04-07T05:48:36;13.50;65.90
32706;DHT22;19094;50.972;3.538;2023-04-07T05:51:02;13.50;65.70
32706;DHT22;19094;50.972;3.538;2023-04-07T05:53:28;13.50;65.60
32706;DHT22;19094;50.972;3.538;2023-04-07T05:55:53;13.50;65.50
32706;DHT22;19094;50.972;3.538;2023-04-07T05:58:19;13.60;65.70
32706;DHT22;19094;50.972;3.538;2023-04-07T06:00:45;13.60;65.50
32706;DHT22;19094;50.972;3.538;2023-04-07T06:03:10;13.60;65.50
32706;DHT22;19094;50.972;3.538;2023-04-07T06:05:36;13.60;65.50
32706;DHT22;19094;50.972;3.538;2023-04-07T06:08:02;13.60;65.40
32706;DHT22;19094;50.972;3.538;2023-04-07T06:10:27;13.70;65.30
32706;DHT22;19094;50.972;3.538;2023-04-07T06:12:53;13.60;65.30
32706;DHT22;19094;50.972;3.538;2023-04-07T06:15:19;13.70;65.40
32706;DHT22;19094;50.972;3.538;2023-04-07T06:17:44;13.60;65.50
32706;DHT22;19094;50.972;3.538;2023-04-07T06:20:10;13.60;65.50
32706;DHT22;19094;50.972;3.538;2023-04-07T06:22:37;13.70;65.50
32706;DHT22;19094;50.972;3.538;2023-04-07T06:25:03;13.60;65.50
32706;DHT22;19094;50.972;3.538;2023-04-07T06:27:29;13.70;65.40
32706;DHT22;19094;50.972;3.538;2023-04-07T06:29:55;13.70;65.20
32706;DHT22;19094;50.972;3.538;2023-04-07T06:32:21;13.70;65.10
32706;DHT22;19094;50.972;3.538;2023-04-07T06:34:46;13.70;65.40
32706;DHT22;19094;50.972;3.538;2023-04-07T06:37:12;13.60;65.40
32706;DHT22;19094;50.972;3.538;2023-04-07T06:39:38;13.70;65.30
32706;DHT22;19094;50.972;3.538;2023-04-07T06:42:04;13.70;65.30
32706;DHT22;19094;50.972;3.538;2023-04-07T06:44:29;13.70;65.40
32706;DHT22;19094;50.972;3.538;2023-04-07T06:46:55;13.80;65.70
32706;DHT22;19094;50.972;3.538;2023-04-07T06:49:21;13.80;65.40
32706;DHT22;19094;50.972;3.538;2023-04-07T06:51:47;13.70;65.40
32706;DHT22;19094;50.972;3.538;2023-04-07T06:54:12;13.80;65.40
32706;DHT22;19094;50.972;3.538;2023-04-07T06:56:42;13.80;65.30
32706;DHT22;19094;50.972;3.538;2023-04-07T06:59:08;13.80;65.30
32706;DHT22;19094;50.972;3.538;2023-04-07T07:01:34;13.80;65.20
32706;DHT22;19094;50.972;3.538;2023-04-07T07:04:00;13.80;65.30
32706;DHT22;19094;50.972;3.538;2023-04-07T07:06:26;13.80;65.10
32706;DHT22;19094;50.972;3.538;2023-04-07T07:08:52;13.90;65.00
32706;DHT22;19094;50.972;3.538;2023-04-07T07:11:18;13.80;64.90
32706;DHT22;19094;50.972;3.538;2023-04-07T07:13:44;13.90;65.10
32706;DHT22;19094;50.972;3.538;2023-04-07T07:16:10;13.90;65.00
32706;DHT22;19094;50.972;3.538;2023-04-07T07:18:37;13.90;64.80
32706;DHT22;19094;50.972;3.538;2023-04-07T07:21:03;13.90;64.80
32706;DHT22;19094;50.972;3.538;2023-04-07T07:23:29;13.90;64.80
32706;DHT22;19094;50.972;3.538;2023-04-07T07:25:55;13.90;64.80
32706;DHT22;19094;50.972;3.538;2023-04-07T07:28:21;14.00;64.60
32706;DHT22;19094;50.972;3.538;2023-04-07T07:30:47;14.00;64.60
32706;DHT22;19094;50.972;3.538;2023-04-07T07:33:12;14.00;64.60
32706;DHT22;19094;50.972;3.538;2023-04-07T07:35:38;14.00;64.60
32706;DHT22;19094;50.972;3.538;2023-04-07T07:38:05;14.00;64.60
32706;DHT22;19094;50.972;3.538;2023-04-07T07:40:31;14.00;64.60
32706;DHT22;19094;50.972;3.538;2023-04-07T07:42:57;14.10;64.60
32706;DHT22;19094;50.972;3.538;2023-04-07T07:45:23;14.00;64.50
32706;DHT22;19094;50.972;3.538;2023-04-07T07:47:49;14.10;64.60
32706;DHT22;19094;50.972;3.538;2023-04-07T07:50:15;14.00;64.40
32706;DHT22;19094;50.972;3.538;2023-04-07T07:52:40;14.00;64.40
32706;DHT22;19094;50.972;3.538;2023-04-07T07:55:08;14.00;64.40
32706;DHT22;19094;50.972;3.538;2023-04-07T07:57:34;14.00;64.60
32706;DHT22;19094;50.972;3.538;2023-04-07T08:00:01;14.00;64.50
32706;DHT22;19094;50.972;3.538;2023-04-07T08:02:27;14.00;64.50
32706;DHT22;19094;50.972;3.538;2023-04-07T08:04:58;14.00;64.60
32706;DHT22;19094;50.972;3.538;2023-04-07T08:07:25;14.00;64.50
32706;DHT22;19094;50.972;3.538;2023-04-07T08:09:52;14.10;64.50
32706;DHT22;19094;50.972;3.538;2023-04-07T08:12:17;14.00;64.40
32706;DHT22;19094;50.972;3.538;2023-04-07T08:14:43;14.00;64.40
32706;DHT22;19094;50.972;3.538;2023-04-07T08:17:09;14.10;64.30
32706;DHT22;19094;50.972;3.538;2023-04-07T08:19:35;14.10;64.20
32706;DHT22;19094;50.972;3.538;2023-04-07T08:22:01;14.10;64.10
32706;DHT22;19094;50.972;3.538;2023-04-07T08:24:27;14.10;64.10
32706;DHT22;19094;50.972;3.538;2023-04-07T08:26:53;14.20;63.90
32706;DHT22;19094;50.972;3.538;2023-04-07T08:29:19;14.20;63.90
32706;DHT22;19094;50.972;3.538;2023-04-07T08:31:45;14.20;63.70
32706;DHT22;19094;50.972;3.538;2023-04-07T08:34:10;14.20;63.70
32706;DHT22;19094;50.972;3.538;2023-04-07T08:36:38;14.20;63.70
32706;DHT22;19094;50.972;3.538;2023-04-07T08:39:03;14.20;63.90
32706;DHT22;19094;50.972;3.538;2023-04-07T08:41:35;14.20;63.80
32706;DHT22;19094;50.972;3.538;2023-04-07T08:44:02;14.30;63.70
32706;DHT22;19094;50.972;3.538;2023-04-07T08:46:29;14.30;63.60
32706;DHT22;19094;50.972;3.538;2023-04-07T08:48:56;14.30;63.60
32706;DHT22;19094;50.972;3.538;2023-04-07T08:51:29;14.30;63.80
32706;DHT22;19094;50.972;3.538;2023-04-07T08:54:13;14.30;63.70
32706;DHT22;19094;50.972;3.538;2023-04-07T08:56:41;14.30;63.90
32706;DHT22;19094;50.972;3.538;2023-04-07T08:59:09;14.30;63.80
32706;DHT22;19094;50.972;3.538;2023-04-07T09:01:36;14.30;63.70
32706;DHT22;19094;50.972;3.538;2023-04-07T09:04:03;14.30;63.60
32706;DHT22;19094;50.972;3.538;2023-04-07T09:06:29;14.20;64.00
32706;DHT22;19094;50.972;3.538;2023-04-07T09:09:00;14.20;64.20
32706;DHT22;19094;50.972;3.538;2023-04-07T09:11:27;14.20;64.20
32706;DHT22;19094;50.972;3.538;2023-04-07T09:13:53;14.20;64.20
32706;DHT22;19094;50.972;3.538;2023-04-07T09:16:19;14.20;64.40
32706;DHT22;19094;50.972;3.538;2023-04-07T09:18:46;14.20;64.50
32706;DHT22;19094;50.972;3.538;2023-04-07T09:21:11;14.20;64.30
32706;DHT22;19094;50.972;3.538;2023-04-07T09:23:39;14.30;64.10
32706;DHT22;19094;50.972;3.538;2023-04-07T09:28:44;14.30;64.00
32706;DHT22;19094;50.972;3.538;2023-04-07T09:31:10;14.30;64.00
32706;DHT22;19094;50.972;3.538;2023-04-07T09:33:36;14.40;63.50
32706;DHT22;19094;50.972;3.538;2023-04-07T09:36:03;14.40;65.20
32706;DHT22;19094;50.972;3.538;2023-04-07T09:38:38;14.40;65.10
32706;DHT22;19094;50.972;3.538;2023-04-07T09:41:13;14.30;64.80
32706;DHT22;19094;50.972;3.538;2023-04-07T09:43:43;14.40;64.40
32706;DHT22;19094;50.972;3.538;2023-04-07T09:48:36;14.40;64.20
32706;DHT22;19094;50.972;3.538;2023-04-07T09:51:14;14.30;64.30
32706;DHT22;19094;50.972;3.538;2023-04-07T09:53:44;14.40;64.30
32706;DHT22;19094;50.972;3.538;2023-04-07T09:56:15;14.30;64.40
32706;DHT22;19094;50.972;3.538;2023-04-07T09:58:43;14.30;64.60
32706;DHT22;19094;50.972;3.538;2023-04-07T10:01:09;14.30;64.60
32706;DHT22;19094;50.972;3.538;2023-04-07T10:03:36;14.30;64.50
32706;DHT22;19094;50.972;3.538;2023-04-07T10:06:03;14.40;64.50
32706;DHT22;19094;50.972;3.538;2023-04-07T10:08:31;14.40;64.30
32706;DHT22;19094;50.972;3.538;2023-04-07T10:10:59;14.40;64.20
32706;DHT22;19094;50.972;3.538;2023-04-07T10:13:26;14.50;64.20
32706;DHT22;19094;50.972;3.538;2023-04-07T10:15:52;14.40;64.30
32706;DHT22;19094;50.972;3.538;2023-04-07T10:18:19;14.40;64.10
32706;DHT22;19094;50.972;3.538;2023-04-07T10:20:47;14.50;64.00
32706;DHT22;19094;50.972;3.538;2023-04-07T10:23:21;14.50;64.10
32706;DHT22;19094;50.972;3.538;2023-04-07T10:25:50;14.50;64.10
32706;DHT22;19094;50.972;3.538;2023-04-07T10:28:18;14.50;64.10
32706;DHT22;19094;50.972;3.538;2023-04-07T10:30:47;14.50;63.80
32706;DHT22;19094;50.972;3.538;2023-04-07T10:33:13;14.50;63.90
32706;DHT22;19094;50.972;3.538;2023-04-07T10:36:04;14.50;63.70
32706;DHT22;19094;50.972;3.538;2023-04-07T10:38:31;14.50;63.60
32706;DHT22;19094;50.972;3.538;2023-04-07T10:40:57;14.50;63.40
32706;DHT22;19094;50.972;3.538;2023-04-07T10:43:40;14.50;63.60
32706;DHT22;19094;50.972;3.538;2023-04-07T10:46:09;14.60;63.50
32706;DHT22;19094;50.972;3.538;2023-04-07T10:48:34;14.60;63.60
32706;DHT22;19094;50.972;3.538;2023-04-07T10:53:29;14.60;63.30
32706;DHT22;19094;50.972;3.538;2023-04-07T10:55:59;14.60;63.30
32706;DHT22;19094;50.972;3.538;2023-04-07T11:03:25;14.60;63.20
32706;DHT22;19094;50.972;3.538;2023-04-07T11:05:51;14.60;63.30
32706;DHT22;19094;50.972;3.538;2023-04-07T11:08:40;14.60;63.20
32706;DHT22;19094;50.972;3.538;2023-04-07T11:11:08;14.60;63.00
32706;DHT22;19094;50.972;3.538;2023-04-07T11:16:06;14.60;62.90
32706;DHT22;19094;50.972;3.538;2023-04-07T11:18:32;14.70;62.80
32706;DHT22;19094;50.972;3.538;2023-04-07T11:20:58;14.80;62.90
32706;DHT22;19094;50.972;3.538;2023-04-07T11:23:24;14.80;64.00
32706;DHT22;19094;50.972;3.538;2023-04-07T11:25:59;14.80;63.80
32706;DHT22;19094;50.972;3.538;2023-04-07T11:28:29;14.80;63.20
32706;DHT22;19094;50.972;3.538;2023-04-07T11:30:56;15.00;64.50
32706;DHT22;19094;50.972;3.538;2023-04-07T11:33:29;15.00;63.50
32706;DHT22;19094;50.972;3.538;2023-04-07T11:35:57;15.00;63.10
32706;DHT22;19094;50.972;3.538;2023-04-07T11:38:25;15.00;62.80
32706;DHT22;19094;50.972;3.538;2023-04-07T11:40:52;15.00;62.90
32706;DHT22;19094;50.972;3.538;2023-04-07T11:43:19;15.00;64.10
32706;DHT22;19094;50.972;3.538;2023-04-07T11:45:46;15.00;64.90
32706;DHT22;19094;50.972;3.538;2023-04-07T11:48:31;15.00;65.50
32706;DHT22;19094;50.972;3.538;2023-04-07T11:50:58;15.00;65.60
32706;DHT22;19094;50.972;3.538;2023-04-07T11:53:25;15.10;65.70
32706;DHT22;19094;50.972;3.538;2023-04-07T11:56:05;15.10;65.30
32706;DHT22;19094;50.972;3.538;2023-04-07T11:58:37;15.10;65.70
32706;DHT22;19094;50.972;3.538;2023-04-07T12:01:05;15.10;66.10
32706;DHT22;19094;50.972;3.538;2023-04-07T12:03:36;15.10;66.40
32706;DHT22;19094;50.972;3.538;2023-04-07T12:06:03;15.20;66.00
32706;DHT22;19094;50.972;3.538;2023-04-07T12:08:39;15.30;66.00
32706;DHT22;19094;50.972;3.538;2023-04-07T12:11:05;15.30;65.40
32706;DHT22;19094;50.972;3.538;2023-04-07T12:13:32;15.20;65.40
32706;DHT22;19094;50.972;3.538;2023-04-07T12:15:58;15.30;65.40
32706;DHT22;19094;50.972;3.538;2023-04-07T12:18:25;15.30;65.50
32706;DHT22;19094;50.972;3.538;2023-04-07T12:20:51;15.30;65.90
32706;DHT22;19094;50.972;3.538;2023-04-07T12:23:17;15.30;66.20
32706;DHT22;19094;50.972;3.538;2023-04-07T12:25:42;15.30;65.60
32706;DHT22;19094;50.972;3.538;2023-04-07T12:28:08;15.30;65.80
32706;DHT22;19094;50.972;3.538;2023-04-07T12:30:34;15.30;66.00
32706;DHT22;19094;50.972;3.538;2023-04-07T12:33:00;15.30;65.40
32706;DHT22;19094;50.972;3.538;2023-04-07T12:35:28;15.20;65.90
32706;DHT22;19094;50.972;3.538;2023-04-07T12:37:53;15.20;65.70
32706;DHT22;19094;50.972;3.538;2023-04-07T12:40:19;15.20;65.40
32706;DHT22;19094;50.972;3.538;2023-04-07T12:42:45;15.20;65.90
32706;DHT22;19094;50.972;3.538;2023-04-07T12:45:11;15.30;66.40
32706;DHT22;19094;50.972;3.538;2023-04-07T12:47:36;15.30;66.90
32706;DHT22;19094;50.972;3.538;2023-04-07T12:50:02;15.30;65.40
32706;DHT22;19094;50.972;3.538;2023-04-07T12:52:28;15.40;64.70
32706;DHT22;19094;50.972;3.538;2023-04-07T12:54:54;15.50;65.10
32706;DHT22;19094;50.972;3.538;2023-04-07T12:57:19;15.50;64.90
32706;DHT22;19094;50.972;3.538;2023-04-07T12:59:45;15.40;65.30
32706;DHT22;19094;50.972;3.538;2023-04-07T13:02:11;15.40;65.50
32706;DHT22;19094;50.972;3.538;2023-04-07T13:04:38;15.40;65.20
32706;DHT22;19094;50.972;3.538;2023-04-07T13:07:07;15.40;65.20
32706;DHT22;19094;50.972;3.538;2023-04-07T13:09:34;15.40;65.00
32706;DHT22;19094;50.972;3.538;2023-04-07T13:11:59;15.40;65.40
32706;DHT22;19094;50.972;3.538;2023-04-07T13:14:25;15.40;65.70
32706;DHT22;19094;50.972;3.538;2023-04-07T13:16:51;15.40;65.80
32706;DHT22;19094;50.972;3.538;2023-04-07T13:19:17;15.40;66.50
32706;DHT22;19094;50.972;3.538;2023-04-07T13:21:42;15.40;66.90
32706;DHT22;19094;50.972;3.538;2023-04-07T13:24:08;15.40;66.70
32706;DHT22;19094;50.972;3.538;2023-04-07T13:26:34;15.40;66.50
32706;DHT22;19094;50.972;3.538;2023-04-07T13:29:01;15.40;66.90
32706;DHT22;19094;50.972;3.538;2023-04-07T13:31:26;15.50;65.70
32706;DHT22;19094;50.972;3.538;2023-04-07T13:33:52;15.40;68.20
32706;DHT22;19094;50.972;3.538;2023-04-07T13:36:18;15.40;67.80
32706;DHT22;19094;50.972;3.538;2023-04-07T13:38:44;15.40;68.00
32706;DHT22;19094;50.972;3.538;2023-04-07T13:41:09;15.30;67.90
32706;DHT22;19094;50.972;3.538;2023-04-07T13:43:35;15.40;66.40
32706;DHT22;19094;50.972;3.538;2023-04-07T13:46:01;15.50;65.90
32706;DHT22;19094;50.972;3.538;2023-04-07T13:48:26;15.50;66.10
32706;DHT22;19094;50.972;3.538;2023-04-07T13:50:52;15.50;65.90
32706;DHT22;19094;50.972;3.538;2023-04-07T13:53:18;15.50;65.90
32706;DHT22;19094;50.972;3.538;2023-04-07T13:55:44;15.50;65.90
32706;DHT22;19094;50.972;3.538;2023-04-07T13:58:09;15.50;66.20
32706;DHT22;19094;50.972;3.538;2023-04-07T14:00:35;15.50;66.60
32706;DHT22;19094;50.972;3.538;2023-04-07T14:03:02;15.40;66.30
32706;DHT22;19094;50.972;3.538;2023-04-07T14:05:28;15.40;65.80
32706;DHT22;19094;50.972;3.538;2023-04-07T14:07:54;15.50;67.40
32706;DHT22;19094;50.972;3.538;2023-04-07T14:10:19;15.50;67.40
32706;DHT22;19094;50.972;3.538;2023-04-07T14:12:46;15.50;67.50
32706;DHT22;19094;50.972;3.538;2023-04-07T14:15:12;15.50;67.90
32706;DHT22;19094;50.972;3.538;2023-04-07T14:17:38;15.40;68.40
32706;DHT22;19094;50.972;3.538;2023-04-07T14:20:04;15.40;68.60
32706;DHT22;19094;50.972;3.538;2023-04-07T14:22:30;15.40;68.50
32706;DHT22;19094;50.972;3.538;2023-04-07T14:24:56;15.40;68.80
32706;DHT22;19094;50.972;3.538;2023-04-07T14:27:22;15.40;68.40
32706;DHT22;19094;50.972;3.538;2023-04-07T14:29:48;15.40;68.50
32706;DHT22;19094;50.972;3.538;2023-04-07T14:32:14;15.40;67.60
32706;DHT22;19094;50.972;3.538;2023-04-07T14:34:40;15.50;68.30
32706;DHT22;19094;50.972;3.538;2023-04-07T14:37:06;15.40;67.90
32706;DHT22;19094;50.972;3.538;2023-04-07T14:39:31;15.40;68.10
32706;DHT22;19094;50.972;3.538;2023-04-07T14:41:57;15.50;68.00
32706;DHT22;19094;50.972;3.538;2023-04-07T14:44:23;15.60;69.20
32706;DHT22;19094;50.972;3.538;2023-04-07T14:46:48;15.60;67.30
32706;DHT22;19094;50.972;3.538;2023-04-07T14:49:14;15.60;67.70
32706;DHT22;19094;50.972;3.538;2023-04-07T14:51:40;15.60;68.70
32706;DHT22;19094;50.972;3.538;2023-04-07T14:54:05;15.50;67.70
32706;DHT22;19094;50.972;3.538;2023-04-07T14:56:32;15.50;68.20
32706;DHT22;19094;50.972;3.538;2023-04-07T14:58:58;15.60;69.40
32706;DHT22;19094;50.972;3.538;2023-04-07T15:01:23;15.50;70.70
32706;DHT22;19094;50.972;3.538;2023-04-07T15:03:50;15.50;71.20
32706;DHT22;19094;50.972;3.538;2023-04-07T15:06:17;15.60;71.70
32706;DHT22;19094;50.972;3.538;2023-04-07T15:08:43;15.60;71.10
32706;DHT22;19094;50.972;3.538;2023-04-07T15:11:09;15.50;71.30
32706;DHT22;19094;50.972;3.538;2023-04-07T15:13:35;15.60;71.70
32706;DHT22;19094;50.972;3.538;2023-04-07T15:16:19;15.60;69.40
32706;DHT22;19094;50.972;3.538;2023-04-07T15:18:45;15.70;65.80
32706;DHT22;19094;50.972;3.538;2023-04-07T15:21:12;15.70;68.80
32706;DHT22;19094;50.972;3.538;2023-04-07T15:23:38;15.70;69.40
32706;DHT22;19094;50.972;3.538;2023-04-07T15:26:06;15.70;69.40
32706;DHT22;19094;50.972;3.538;2023-04-07T15:28:32;15.70;69.30
32706;DHT22;19094;50.972;3.538;2023-04-07T15:30:58;15.70;70.00
32706;DHT22;19094;50.972;3.538;2023-04-07T15:33:25;15.80;69.50
32706;DHT22;19094;50.972;3.538;2023-04-07T15:35:51;15.80;69.40
32706;DHT22;19094;50.972;3.538;2023-04-07T15:38:17;15.70;69.70
32706;DHT22;19094;50.972;3.538;2023-04-07T15:40:43;15.70;69.70
32706;DHT22;19094;50.972;3.538;2023-04-07T15:43:08;15.60;69.60
32706;DHT22;19094;50.972;3.538;2023-04-07T15:45:40;15.60;69.90
32706;DHT22;19094;50.972;3.538;2023-04-07T15:48:06;15.60;70.10
32706;DHT22;19094;50.972;3.538;2023-04-07T15:50:31;15.60;69.50